Time,TemperatureF,DewpointF,PressureIn,WindDirection,WindDirectionDegrees,WindSpeedMPH,WindSpeedGustMPH,Humidity,HourlyPrecipIn,Conditions,Clouds,dailyrainin,SoftwareType,DateUTC
2013-04-24 00:06:00,66.1,53.0,29.80,SW,217,5.0,14.0,64,0.00,,,0.00,weatherlink.com 1.10,2013-04-24 04:06:00,
2013-04-24 00:21:00,66.5,54.0,29.79,South,169,6.0,17.0,65,0.00,,,0.00,weatherlink.com 1.10,2013-04-24 04:21:00,
2013-04-24 00:36:00,67.0,55.0,29.79,SW,232,10.0,20.0,65,0.00,,,0.00,weatherlink.com 1.10,2013-04-24 04:36:00,
2013-04-24 00:51:00,66.9,56.0,29.80,South,171,8.0,18.0,67,0.00,,,0.00,weatherlink.com 1.10,2013-04-24 04:51:00,
2013-04-24 01:06:00,66.5,56.0,29.81,WSW,238,4.0,15.0,68,0.00,,,0.00,weatherlink.com 1.10,2013-04-24 05:06:00,
2013-04-24 01:21:00,66.3,55.0,29.81,SSW,207,5.0,11.0,68,0.00,,,0.00,weatherlink.com 1.10,2013-04-24 05:21:00,
2013-04-24 01:36:00,66.0,56.0,29.81,WSW,242,5.0,11.0,69,0.00,,,0.00,weatherlink.com 1.10,2013-04-24 05:36:00,
2013-04-24 01:51:00,63.9,55.0,29.81,West,259,5.0,8.0,74,0.00,,,0.00,weatherlink.com 1.10,2013-04-24 05:51:00,
2013-04-24 02:06:00,61.7,55.0,29.81,WSW,242,2.0,9.0,79,0.00,,,0.00,weatherlink.com 1.10,2013-04-24 06:06:00,
2013-04-24 02:21:00,60.1,55.0,29.81,WSW,237,6.0,9.0,83,0.00,,,0.00,weatherlink.com 1.10,2013-04-24 06:21:00,
2013-04-24 02:36:00,59.3,55.0,29.80,WSW,255,1.0,5.0,84,0.00,,,0.00,weatherlink.com 1.10,2013-04-24 06:36:00,
2013-04-24 02:51:00,58.6,54.0,29.80,WSW,240,0.0,5.0,85,0.00,,,0.00,weatherlink.com 1.10,2013-04-24 06:51:00,
2013-04-24 03:06:00,58.0,54.0,29.81,WSW,251,2.0,7.0,87,0.00,,,0.00,weatherlink.com 1.10,2013-04-24 07:06:00,
2013-04-24 03:21:00,56.4,53.0,29.82,WSW,253,6.0,10.0,89,0.02,,,0.02,weatherlink.com 1.10,2013-04-24 07:21:00,
2013-04-24 03:36:00,54.7,52.0,29.83,WSW,241,8.0,13.0,90,0.03,,,0.03,weatherlink.com 1.10,2013-04-24 07:36:00,
2013-04-24 03:51:00,52.9,50.0,29.83,WSW,243,5.0,7.0,90,0.05,,,0.05,weatherlink.com 1.10,2013-04-24 07:51:00,
2013-04-24 04:07:00,51.8,49.0,29.83,WSW,248,4.0,9.0,91,0.05,,,0.05,weatherlink.com 1.10,2013-04-24 08:07:00,
2013-04-24 04:22:00,51.3,49.0,29.82,WSW,238,1.0,4.0,92,0.04,,,0.06,weatherlink.com 1.10,2013-04-24 08:22:00,
2013-04-24 04:37:00,50.5,48.0,29.82,WSW,254,7.0,10.0,92,0.04,,,0.07,weatherlink.com 1.10,2013-04-24 08:37:00,
2013-04-24 04:52:00,49.6,47.0,29.84,SW,234,3.0,11.0,92,0.02,,,0.07,weatherlink.com 1.10,2013-04-24 08:52:00,
2013-04-24 05:07:00,48.8,47.0,29.85,WSW,254,0.0,5.0,92,0.02,,,0.07,weatherlink.com 1.10,2013-04-24 09:07:00,
2013-04-24 05:22:00,48.2,46.0,29.83,WSW,253,0.0,3.0,92,0.01,,,0.07,weatherlink.com 1.10,2013-04-24 09:22:00,
2013-04-24 05:37:00,48.1,46.0,29.83,SW,236,1.0,3.0,93,0.00,,,0.07,weatherlink.com 1.10,2013-04-24 09:37:00,
2013-04-24 05:52:00,47.5,46.0,29.86,WSW,244,4.0,10.0,93,0.02,,,0.09,weatherlink.com 1.10,2013-04-24 09:52:00,
2013-04-24 06:07:00,47.1,45.0,29.85,WNW,286,0.0,7.0,93,0.03,,,0.10,weatherlink.com 1.10,2013-04-24 10:07:00,
2013-04-24 06:22:00,47.0,45.0,29.82,SE,141,0.0,3.0,94,0.06,,,0.13,weatherlink.com 1.10,2013-04-24 10:22:00,
2013-04-24 06:37:00,47.0,45.0,29.83,West,259,0.0,4.0,94,0.05,,,0.13,weatherlink.com 1.10,2013-04-24 10:37:00,
2013-04-24 06:52:00,46.6,45.0,29.86,WSW,256,4.0,6.0,94,0.07,,,0.16,weatherlink.com 1.10,2013-04-24 10:52:00,
2013-04-24 07:07:00,46.2,45.0,29.85,WNW,286,0.0,5.0,94,0.09,,,0.19,weatherlink.com 1.10,2013-04-24 11:07:00,
2013-04-24 07:22:00,45.8,44.0,29.86,NNW,330,4.0,8.0,93,0.10,,,0.23,weatherlink.com 1.10,2013-04-24 11:22:00,
2013-04-24 07:37:00,45.2,43.0,29.86,WNW,290,1.0,8.0,93,0.13,,,0.26,weatherlink.com 1.10,2013-04-24 11:37:00,
2013-04-24 07:52:00,44.5,43.0,29.87,NW,319,2.0,4.0,93,0.11,,,0.27,weatherlink.com 1.10,2013-04-24 11:52:00,
2013-04-24 08:07:00,44.1,42.0,29.90,SW,236,3.0,6.0,93,0.14,,,0.33,weatherlink.com 1.10,2013-04-24 12:07:00,
2013-04-24 08:22:00,43.6,42.0,29.87,NW,311,1.0,6.0,94,0.22,,,0.45,weatherlink.com 1.10,2013-04-24 12:22:00,
2013-04-24 08:37:00,43.2,42.0,29.87,SW,234,0.0,4.0,94,0.25,,,0.51,weatherlink.com 1.10,2013-04-24 12:37:00,
2013-04-24 08:52:00,42.7,41.0,29.89,NNW,327,3.0,8.0,94,0.27,,,0.54,weatherlink.com 1.10,2013-04-24 12:52:00,
2013-04-24 09:07:00,42.4,41.0,29.88,WNW,288,1.0,8.0,94,0.28,,,0.61,weatherlink.com 1.10,2013-04-24 13:07:00,
2013-04-24 09:22:00,42.2,41.0,29.88,NW,306,0.0,7.0,94,0.19,,,0.64,weatherlink.com 1.10,2013-04-24 13:22:00,
2013-04-24 09:37:00,41.8,40.0,29.89,NW,312,3.0,5.0,94,0.17,,,0.68,weatherlink.com 1.10,2013-04-24 13:37:00,
2013-04-24 09:52:00,41.7,40.0,29.85,North,355,5.0,9.0,94,0.15,,,0.70,weatherlink.com 1.10,2013-04-24 13:52:00,
2013-04-24 10:07:00,41.6,40.0,29.84,NW,315,5.0,7.0,94,0.10,,,0.71,weatherlink.com 1.10,2013-04-24 14:07:00,
2013-04-24 10:22:00,41.8,40.0,29.91,West,275,0.0,7.0,94,0.06,,,0.71,weatherlink.com 1.10,2013-04-24 14:22:00,
2013-04-24 10:37:00,41.7,40.0,29.93,WNW,303,3.0,10.0,93,0.02,,,0.71,weatherlink.com 1.10,2013-04-24 14:37:00,
2013-04-24 10:52:00,41.4,40.0,29.95,West,281,3.0,10.0,93,0.01,,,0.71,weatherlink.com 1.10,2013-04-24 14:52:00,
2013-04-24 11:23:00,41.2,39.0,29.98,NW,309,3.0,10.0,91,0.00,,,0.71,weatherlink.com 1.10,2013-04-24 15:23:00,
2013-04-24 11:38:00,41.0,39.0,30.00,WNW,298,1.0,11.0,92,0.00,,,0.71,weatherlink.com 1.10,2013-04-24 15:38:00,
2013-04-24 11:53:00,40.5,38.0,30.02,North,360,3.0,12.0,92,0.00,,,0.71,weatherlink.com 1.10,2013-04-24 15:53:00,
2013-04-24 12:08:00,41.2,39.0,30.02,NNW,336,4.0,7.0,92,0.00,,,0.71,weatherlink.com 1.10,2013-04-24 16:08:00,
2013-04-24 12:23:00,42.7,40.0,30.03,WNW,298,1.0,12.0,89,0.00,,,0.71,weatherlink.com 1.10,2013-04-24 16:23:00,
2013-04-24 12:38:00,43.3,39.0,30.04,WSW,240,4.0,6.0,85,0.00,,,0.71,weatherlink.com 1.10,2013-04-24 16:38:00,
2013-04-24 12:53:00,43.3,39.0,30.05,West,279,0.0,7.0,86,0.00,,,0.71,weatherlink.com 1.10,2013-04-24 16:53:00,
2013-04-24 13:23:00,43.4,39.0,30.07,West,272,0.0,10.0,85,0.00,,,0.71,weatherlink.com 1.10,2013-04-24 17:23:00,
2013-04-24 13:38:00,43.8,40.0,30.07,West,261,3.0,7.0,85,0.00,,,0.71,weatherlink.com 1.10,2013-04-24 17:38:00,
2013-04-24 13:53:00,43.9,40.0,30.07,WNW,286,2.0,8.0,85,0.00,,,0.71,weatherlink.com 1.10,2013-04-24 17:53:00,
2013-04-24 14:08:00,43.8,40.0,30.07,NW,308,1.0,8.0,85,0.00,,,0.71,weatherlink.com 1.10,2013-04-24 18:08:00,
2013-04-24 14:23:00,44.1,40.0,30.08,WNW,290,2.0,12.0,84,0.00,,,0.71,weatherlink.com 1.10,2013-04-24 18:23:00,
2013-04-24 14:38:00,43.7,40.0,30.09,West,268,2.0,11.0,86,0.00,,,0.71,weatherlink.com 1.10,2013-04-24 18:38:00,
2013-04-24 14:53:00,44.1,41.0,30.09,SW,236,1.0,9.0,88,0.00,,,0.71,weatherlink.com 1.10,2013-04-24 18:53:00,
2013-04-24 15:08:00,44.7,40.0,30.09,WNW,284,7.0,10.0,82,0.00,,,0.71,weatherlink.com 1.10,2013-04-24 19:08:00,
2013-04-24 15:23:00,44.4,40.0,30.09,West,263,3.0,8.0,83,0.00,,,0.71,weatherlink.com 1.10,2013-04-24 19:23:00,
2013-04-24 15:38:00,45.4,40.0,30.11,NNW,329,3.0,9.0,80,0.00,,,0.71,weatherlink.com 1.10,2013-04-24 19:38:00,
2013-04-24 15:53:00,45.4,39.0,30.11,WSW,257,8.0,12.0,77,0.00,,,0.71,weatherlink.com 1.10,2013-04-24 19:53:00,
2013-04-24 16:08:00,44.4,38.0,30.12,West,262,2.0,9.0,79,0.00,,,0.71,weatherlink.com 1.10,2013-04-24 20:08:00,
2013-04-24 16:23:00,46.0,40.0,30.12,West,267,1.0,10.0,79,0.00,,,0.71,weatherlink.com 1.10,2013-04-24 20:23:00,
2013-04-24 16:38:00,45.6,38.0,30.13,WSW,253,7.0,8.0,75,0.00,,,0.71,weatherlink.com 1.10,2013-04-24 20:38:00,
2013-04-24 16:53:00,45.1,38.0,30.14,West,273,5.0,9.0,75,0.00,,,0.71,weatherlink.com 1.10,2013-04-24 20:53:00,
2013-04-24 17:08:00,45.4,38.0,30.15,WSW,246,3.0,9.0,76,0.00,,,0.71,weatherlink.com 1.10,2013-04-24 21:08:00,
2013-04-24 17:23:00,45.3,37.0,30.15,WSW,244,2.0,8.0,73,0.00,,,0.71,weatherlink.com 1.10,2013-04-24 21:23:00,
2013-04-24 17:38:00,45.1,38.0,30.16,WSW,250,2.0,7.0,75,0.00,,,0.71,weatherlink.com 1.10,2013-04-24 21:38:00,
2013-04-24 17:53:00,45.3,37.0,30.16,SSW,209,5.0,7.0,74,0.00,,,0.71,weatherlink.com 1.10,2013-04-24 21:53:00,
2013-04-24 18:08:00,45.0,39.0,30.17,SW,221,2.0,9.0,78,0.00,,,0.71,weatherlink.com 1.10,2013-04-24 22:08:00,
2013-04-24 18:23:00,47.6,38.0,30.16,WSW,257,3.0,8.0,69,0.00,,,0.71,weatherlink.com 1.10,2013-04-24 22:23:00,
2013-04-24 18:38:00,47.2,36.0,30.17,WNW,288,3.0,12.0,66,0.00,,,0.71,weatherlink.com 1.10,2013-04-24 22:38:00,
2013-04-24 18:53:00,48.2,36.0,30.17,SW,236,7.0,10.0,64,0.00,,,0.71,weatherlink.com 1.10,2013-04-24 22:53:00,
2013-04-24 19:08:00,47.3,36.0,30.17,WSW,249,7.0,8.0,66,0.00,,,0.71,weatherlink.com 1.10,2013-04-24 23:08:00,
2013-04-24 19:23:00,46.5,36.0,30.17,WSW,238,6.0,10.0,67,0.00,,,0.71,weatherlink.com 1.10,2013-04-24 23:23:00,
2013-04-24 19:38:00,45.8,36.0,30.18,SW,236,7.0,8.0,69,0.00,,,0.71,weatherlink.com 1.10,2013-04-24 23:38:00,
2013-04-24 19:53:00,45.1,35.0,30.18,WSW,256,1.0,5.0,69,0.00,,,0.71,weatherlink.com 1.10,2013-04-24 23:53:00,
2013-04-24 20:09:00,44.8,36.0,30.19,WSW,256,0.0,1.0,71,0.00,,,0.71,weatherlink.com 1.10,2013-04-25 00:09:00,
2013-04-24 20:24:00,44.4,37.0,30.19,West,277,1.0,2.0,76,0.00,,,0.71,weatherlink.com 1.10,2013-04-25 00:24:00,
2013-04-24 20:39:00,43.4,37.0,30.20,West,277,0.0,2.0,77,0.00,,,0.71,weatherlink.com 1.10,2013-04-25 00:39:00,
2013-04-24 20:54:00,42.2,37.0,30.20,West,277,0.0,1.0,83,0.00,,,0.71,weatherlink.com 1.10,2013-04-25 00:54:00,
2013-04-24 21:09:00,41.0,37.0,30.21,West,277,0.0,0.0,85,0.00,,,0.71,weatherlink.com 1.10,2013-04-25 01:09:00,
2013-04-24 21:24:00,40.0,36.0,30.22,West,277,0.0,0.0,86,0.00,,,0.71,weatherlink.com 1.10,2013-04-25 01:24:00,
2013-04-24 21:39:00,38.8,36.0,30.22,West,277,0.0,2.0,88,0.00,,,0.71,weatherlink.com 1.10,2013-04-25 01:39:00,
2013-04-24 21:54:00,37.9,35.0,30.22,West,277,0.0,0.0,89,0.00,,,0.71,weatherlink.com 1.10,2013-04-25 01:54:00,
2013-04-24 22:09:00,37.1,35.0,30.23,West,277,0.0,0.0,90,0.00,,,0.71,weatherlink.com 1.10,2013-04-25 02:09:00,
2013-04-24 22:24:00,36.4,34.0,30.23,West,277,0.0,0.0,90,0.00,,,0.71,weatherlink.com 1.10,2013-04-25 02:24:00,
2013-04-24 22:39:00,35.8,34.0,30.24,West,277,0.0,0.0,91,0.00,,,0.71,weatherlink.com 1.10,2013-04-25 02:39:00,
2013-04-24 22:54:00,35.2,33.0,30.24,West,277,0.0,0.0,91,0.00,,,0.71,weatherlink.com 1.10,2013-04-25 02:54:00,
2013-04-24 23:24:00,34.1,32.0,30.24,West,277,0.0,0.0,92,0.00,,,0.71,weatherlink.com 1.10,2013-04-25 03:24:00,
2013-04-24 23:39:00,33.7,32.0,30.25,West,277,0.0,0.0,92,0.00,,,0.71,weatherlink.com 1.10,2013-04-25 03:39:00,
2013-04-24 23:54:00,33.3,32.0,30.26,West,277,0.0,0.0,93,0.00,,,0.71,weatherlink.com 1.10,2013-04-25 03:54:00,